createdAt,value
2018-09-24T00:00:16.550Z,2.43
2018-09-24T00:02:44.715Z,2.20
2018-09-24T00:05:12.780Z,2.47
2018-09-24T00:07:40.909Z,2.30
2018-09-24T00:10:09.029Z,2.73
2018-09-24T00:12:37.381Z,2.47
2018-09-24T00:15:05.445Z,2.40
2018-09-24T00:17:33.571Z,3.33
2018-09-24T00:20:01.656Z,2.50
2018-09-24T00:22:29.720Z,2.30
2018-09-24T00:24:57.977Z,2.43
2018-09-24T00:27:26.049Z,2.70
2018-09-24T00:29:54.265Z,2.60
2018-09-24T00:32:22.340Z,2.20
2018-09-24T00:34:50.585Z,2.50
2018-09-24T00:37:18.781Z,3.07
2018-09-24T00:39:46.881Z,2.30
2018-09-24T00:42:14.998Z,2.70
2018-09-24T00:44:43.111Z,2.30
2018-09-24T00:47:11.172Z,2.33
2018-09-24T00:49:39.232Z,2.10
2018-09-24T00:52:07.409Z,2.20
2018-09-24T00:54:35.467Z,2.90
2018-09-24T00:57:03.551Z,2.10
2018-09-24T00:59:31.717Z,2.30
2018-09-24T01:01:59.772Z,2.20
2018-09-24T01:04:27.867Z,2.17
2018-09-24T01:06:55.924Z,2.47
2018-09-24T01:09:24.012Z,2.13
2018-09-24T01:11:52.181Z,2.50
2018-09-24T01:14:20.292Z,2.63
2018-09-24T01:16:48.468Z,2.60
2018-09-24T01:19:16.614Z,2.30
2018-09-24T01:21:44.901Z,2.33
2018-09-24T01:24:12.981Z,2.00
2018-09-24T01:26:41.145Z,2.43
2018-09-24T01:29:09.252Z,2.10
2018-09-24T01:31:37.317Z,2.30
2018-09-24T01:34:05.444Z,2.03
2018-09-24T01:36:33.628Z,2.10
2018-09-24T01:39:01.708Z,1.90
2018-09-24T01:41:29.777Z,1.70
2018-09-24T01:43:57.900Z,2.13
2018-09-24T01:46:25.956Z,1.70
2018-09-24T01:48:54.035Z,1.83
2018-09-24T01:51:22.173Z,1.73
2018-09-24T01:53:50.355Z,2.27
2018-09-24T01:56:18.522Z,2.30
2018-09-24T01:58:46.637Z,2.00
2018-09-24T02:01:14.769Z,2.60
2018-09-24T02:03:42.950Z,2.17
2018-09-24T02:06:11.013Z,2.30
2018-09-24T02:08:41.572Z,2.37
2018-09-24T02:11:09.864Z,2.23
2018-09-24T02:13:42.453Z,2.40
2018-09-24T02:16:10.547Z,2.40
2018-09-24T02:18:38.684Z,2.60
2018-09-24T02:21:06.869Z,2.53
2018-09-24T02:23:34.937Z,2.60
2018-09-24T02:26:03.388Z,2.30
2018-09-24T02:28:32.129Z,2.70
2018-09-24T02:31:00.240Z,3.17
2018-09-24T02:33:28.370Z,2.70
2018-09-24T02:35:56.494Z,3.00
2018-09-24T02:38:24.574Z,3.00
2018-09-24T02:40:52.634Z,3.13
2018-09-24T02:43:22.989Z,3.57
2018-09-24T02:45:51.469Z,2.90
2018-09-24T02:48:19.536Z,3.40
2018-09-24T02:50:47.698Z,3.40
2018-09-24T02:53:15.988Z,3.77
2018-09-24T02:55:44.384Z,3.90
2018-09-24T02:58:15.748Z,4.30
2018-09-24T03:00:44.138Z,3.80
2018-09-24T03:03:12.565Z,3.90
2018-09-24T03:05:40.963Z,3.60
2018-09-24T03:08:10.748Z,3.60
2018-09-24T03:10:39.368Z,4.07
2018-09-24T03:13:07.443Z,4.10
2018-09-24T03:15:37.040Z,4.20
2018-09-24T03:18:05.705Z,3.50
2018-09-24T03:20:33.895Z,3.50
2018-09-24T03:23:02.021Z,3.60
2018-09-24T03:25:30.292Z,3.73
2018-09-24T03:27:59.248Z,3.67
2018-09-24T03:30:31.805Z,4.17
2018-09-24T03:33:00.112Z,4.37
2018-09-24T03:35:28.472Z,4.60
2018-09-24T03:37:56.968Z,4.00
2018-09-24T03:40:25.321Z,4.20
2018-09-24T03:42:53.517Z,4.17
2018-09-24T03:45:21.778Z,4.33
2018-09-24T03:47:50.069Z,5.20
2018-09-24T03:50:18.140Z,3.83
2018-09-24T03:52:46.223Z,4.37
2018-09-24T03:55:14.480Z,4.50
2018-09-24T03:57:43.186Z,4.90
2018-09-24T04:00:11.953Z,4.07
2018-09-24T04:02:40.753Z,4.13
2018-09-24T04:05:14.357Z,4.77
2018-09-24T04:07:47.704Z,4.57
2018-09-24T04:10:21.194Z,4.33
2018-09-24T04:12:54.789Z,4.50
2018-09-24T04:15:28.261Z,5.37
2018-09-24T04:18:01.611Z,4.90
2018-09-24T04:20:35.534Z,5.23
2018-09-24T04:23:09.063Z,5.57
2018-09-24T04:25:42.551Z,5.20
2018-09-24T04:28:16.201Z,6.00
2018-09-24T04:30:49.786Z,4.97
2018-09-24T04:33:23.230Z,5.17
2018-09-24T04:35:56.661Z,5.43
2018-09-24T04:38:30.304Z,5.30
2018-09-24T04:41:03.920Z,5.13
2018-09-24T04:43:37.361Z,5.50
2018-09-24T04:46:10.740Z,5.77
2018-09-24T04:48:44.409Z,5.63
2018-09-24T04:51:18.158Z,4.77
2018-09-24T04:53:51.821Z,5.70
2018-09-24T04:56:25.518Z,5.90
2018-09-24T04:58:58.965Z,5.53
2018-09-24T05:01:32.635Z,5.37
2018-09-24T05:04:06.066Z,6.17
2018-09-24T05:06:39.723Z,5.60
2018-09-24T05:09:20.981Z,5.90
2018-09-24T05:11:54.488Z,7.20
2018-09-24T05:14:27.963Z,7.27
2018-09-24T05:17:01.543Z,6.03
2018-09-24T05:19:35.227Z,6.33
2018-09-24T05:22:09.306Z,5.97
2018-09-24T05:24:42.943Z,7.10
2018-09-24T05:27:16.658Z,7.40
2018-09-24T05:29:50.281Z,6.87
2018-09-24T05:32:23.754Z,6.93
2018-09-24T05:34:57.565Z,6.60
2018-09-24T05:37:31.180Z,7.20
2018-09-24T05:40:04.606Z,8.07
2018-09-24T05:42:38.017Z,7.07
2018-09-24T05:45:11.746Z,7.20
2018-09-24T05:47:45.382Z,8.73
2018-09-24T05:50:19.005Z,7.10
2018-09-24T05:52:52.621Z,7.43
2018-09-24T05:55:26.132Z,6.67
2018-09-24T05:57:59.532Z,7.07
2018-09-24T06:00:33.009Z,6.57
2018-09-24T06:03:06.390Z,7.50
2018-09-24T06:05:39.813Z,6.40
2018-09-24T06:08:13.566Z,6.43
2018-09-24T06:10:47.027Z,6.60
2018-09-24T06:13:20.636Z,6.80
2018-09-24T06:15:54.105Z,6.70
2018-09-24T06:18:27.494Z,6.97
2018-09-24T06:21:00.893Z,7.20
2018-09-24T06:23:34.298Z,7.40
2018-09-24T06:26:07.932Z,6.47
2018-09-24T06:28:41.501Z,6.73
2018-09-24T06:31:15.227Z,7.13
2018-09-24T06:33:48.817Z,7.70
2018-09-24T06:36:22.494Z,7.37
2018-09-24T06:38:55.861Z,7.40
2018-09-24T06:41:29.241Z,7.80
2018-09-24T06:44:02.789Z,7.23
2018-09-24T06:46:36.157Z,7.43
2018-09-24T06:49:09.640Z,7.37
2018-09-24T06:51:43.265Z,8.10
2018-09-24T06:54:16.716Z,7.10
2018-09-24T06:56:50.383Z,7.57
2018-09-24T06:59:23.981Z,7.00
2018-09-24T07:01:57.652Z,6.87
2018-09-24T07:04:31.028Z,5.70
2018-09-24T07:07:04.519Z,6.43
2018-09-24T07:09:37.933Z,5.17
2018-09-24T07:12:11.430Z,5.37
2018-09-24T07:14:45.045Z,5.07
2018-09-24T07:17:18.436Z,4.80
2018-09-24T07:19:52.097Z,4.97
2018-09-24T07:22:25.435Z,5.00
2018-09-24T07:24:58.783Z,4.77
2018-09-24T07:27:32.251Z,4.47
2018-09-24T07:30:05.821Z,4.73
2018-09-24T07:32:39.241Z,4.90
2018-09-24T07:35:12.718Z,4.00
2018-09-24T07:37:46.424Z,5.00
2018-09-24T07:40:19.819Z,4.57
2018-09-24T07:42:53.268Z,4.67
2018-09-24T07:45:27.092Z,4.13
2018-09-24T07:48:00.789Z,3.50
2018-09-24T07:50:34.252Z,3.40
2018-09-24T07:53:07.746Z,4.30
2018-09-24T07:55:41.313Z,3.17
2018-09-24T07:58:14.979Z,4.07
2018-09-24T08:00:48.471Z,3.40
2018-09-24T08:03:22.188Z,3.37
2018-09-24T08:05:55.583Z,3.53
2018-09-24T08:08:29.048Z,3.37
2018-09-24T08:11:02.452Z,2.67
2018-09-24T08:13:36.114Z,2.90
2018-09-24T08:16:09.563Z,2.20
2018-09-24T08:18:43.192Z,2.80
2018-09-24T08:21:16.525Z,2.70
2018-09-24T08:23:50.171Z,3.10
2018-09-24T08:26:23.576Z,3.00
2018-09-24T08:28:57.162Z,3.93
2018-09-24T08:31:31.074Z,1.90
2018-09-24T08:34:04.744Z,2.60
2018-09-24T08:36:38.424Z,2.67
2018-09-24T08:39:12.709Z,2.50
2018-09-24T08:41:46.334Z,1.87
2018-09-24T08:44:19.648Z,1.97
2018-09-24T08:46:53.004Z,2.30
2018-09-24T08:49:26.314Z,1.80
2018-09-24T08:51:59.741Z,1.93
2018-09-24T08:54:33.290Z,2.10
2018-09-24T08:57:06.825Z,2.10
2018-09-24T08:59:40.321Z,1.50
2018-09-24T09:02:13.805Z,2.23
2018-09-24T09:04:47.460Z,3.00
2018-09-24T09:07:20.772Z,1.83
2018-09-24T09:09:54.086Z,1.37
2018-09-24T09:12:27.618Z,2.00
2018-09-24T09:15:01.141Z,1.47
2018-09-24T09:17:34.549Z,1.70
2018-09-24T09:20:08.456Z,1.90
2018-09-24T09:22:41.953Z,1.43
2018-09-24T09:25:15.257Z,2.10
2018-09-24T09:27:48.806Z,1.70
2018-09-24T09:30:22.504Z,1.43
2018-09-24T09:32:55.968Z,1.90
2018-09-24T09:35:29.390Z,1.40
2018-09-24T09:38:03.897Z,2.10
2018-09-24T09:40:37.317Z,1.33
2018-09-24T09:43:11.081Z,1.80
2018-09-24T09:45:44.984Z,2.47
2018-09-24T09:48:18.401Z,1.50
2018-09-24T09:50:51.905Z,2.40
2018-09-24T09:53:25.547Z,1.33
2018-09-24T09:55:59.211Z,1.50
2018-09-24T09:58:32.769Z,1.97
2018-09-24T10:01:06.432Z,1.70
2018-09-24T10:03:39.840Z,1.60
2018-09-24T10:06:13.323Z,2.03
2018-09-24T10:08:46.721Z,2.03
2018-09-24T10:11:20.200Z,1.40
2018-09-24T10:13:53.873Z,1.43
2018-09-24T10:16:27.327Z,1.60
2018-09-24T10:19:00.756Z,1.37
2018-09-24T10:21:34.252Z,1.50
2018-09-24T10:24:07.837Z,1.30
2018-09-24T10:26:41.489Z,1.80
2018-09-24T10:29:15.664Z,1.30
2018-09-24T10:31:49.228Z,1.70
2018-09-24T10:34:22.841Z,1.53
2018-09-24T10:36:56.399Z,1.40
2018-09-24T10:39:30.049Z,1.23
2018-09-24T10:42:03.705Z,1.10
2018-09-24T10:44:37.217Z,1.40
2018-09-24T10:47:10.769Z,1.20
2018-09-24T10:49:44.320Z,1.73
2018-09-24T10:52:18.295Z,1.13
2018-09-24T10:54:51.937Z,1.30
2018-09-24T10:57:25.404Z,1.20
2018-09-24T10:59:58.896Z,1.40
2018-09-24T11:02:32.428Z,1.53
2018-09-24T11:05:06.353Z,1.60
2018-09-24T11:07:39.963Z,1.70
2018-09-24T11:10:13.379Z,1.50
2018-09-24T11:12:47.129Z,1.63
2018-09-24T11:15:20.553Z,1.33
2018-09-24T11:17:54.297Z,1.67
2018-09-24T11:20:27.832Z,2.03
2018-09-24T11:23:01.466Z,1.37
2018-09-24T11:25:35.030Z,1.67
2018-09-24T11:28:08.889Z,1.53
2018-09-24T11:30:42.675Z,1.70
2018-09-24T11:33:16.281Z,1.20
2018-09-24T11:35:49.857Z,1.70
2018-09-24T11:38:23.248Z,1.50
2018-09-24T11:40:57.142Z,1.13
2018-09-24T11:43:30.706Z,1.30
2018-09-24T11:46:04.137Z,1.10
2018-09-24T11:48:37.705Z,1.30
2018-09-24T11:51:11.298Z,1.33
2018-09-24T11:53:44.860Z,1.57
2018-09-24T11:56:18.316Z,1.13
2018-09-24T11:58:52.090Z,0.93
2018-09-24T12:01:25.467Z,1.60
2018-09-24T12:03:58.844Z,1.60
2018-09-24T12:06:32.413Z,3.00
2018-09-24T12:09:05.842Z,1.57
2018-09-24T12:11:39.404Z,1.50
2018-09-24T12:14:13.113Z,1.20
2018-09-24T12:16:46.770Z,1.47
2018-09-24T12:19:20.278Z,1.60
2018-09-24T12:21:53.881Z,1.10
2018-09-24T12:24:27.549Z,1.40
2018-09-24T12:27:01.159Z,1.20
2018-09-24T12:29:34.577Z,1.50
2018-09-24T12:32:08.386Z,1.20
2018-09-24T12:34:41.993Z,1.40
2018-09-24T12:37:15.640Z,1.17
2018-09-24T12:39:48.953Z,1.50
2018-09-24T12:42:23.033Z,1.43
2018-09-24T12:44:56.738Z,1.43
2018-09-24T12:47:30.367Z,1.60
2018-09-24T12:50:03.828Z,1.10
2018-09-24T12:52:37.276Z,1.30
2018-09-24T12:55:10.683Z,1.20
2018-09-24T12:57:44.345Z,1.33
2018-09-24T13:00:17.950Z,1.60
2018-09-24T13:02:51.566Z,1.10
2018-09-24T13:05:24.969Z,1.30
2018-09-24T13:07:58.569Z,0.97
2018-09-24T13:10:32.169Z,1.20
2018-09-24T13:13:05.776Z,1.27
2018-09-24T13:15:39.242Z,1.20
2018-09-24T13:18:13.120Z,1.07
2018-09-24T13:20:46.782Z,1.30
2018-09-24T13:23:20.212Z,1.47
2018-09-24T13:25:53.813Z,1.30
2018-09-24T13:28:27.408Z,1.27
2018-09-24T13:31:00.874Z,1.40
2018-09-24T13:33:34.396Z,1.30
2018-09-24T13:36:07.832Z,1.40
2018-09-24T13:38:41.484Z,1.30
2018-09-24T13:41:14.921Z,1.50
2018-09-24T13:43:48.334Z,1.57
2018-09-24T13:46:22.065Z,1.30
2018-09-24T13:48:55.489Z,1.33
2018-09-24T13:51:29.089Z,1.30
2018-09-24T13:54:02.684Z,1.30
2018-09-24T13:56:36.129Z,1.63
2018-09-24T13:59:09.832Z,1.30
2018-09-24T14:01:43.273Z,1.70
2018-09-24T14:04:16.625Z,1.47
2018-09-24T14:06:50.211Z,1.20
2018-09-24T14:09:23.585Z,1.50
2018-09-24T14:11:57.037Z,1.47
2018-09-24T14:14:30.989Z,1.00
2018-09-24T14:17:04.618Z,1.10
2018-09-24T14:19:37.985Z,1.40
2018-09-24T14:22:11.677Z,1.03
2018-09-24T14:24:45.212Z,1.10
2018-09-24T14:27:18.689Z,1.30
2018-09-24T14:29:52.293Z,1.63
2018-09-24T14:32:25.683Z,1.20
2018-09-24T14:34:59.429Z,1.07
2018-09-24T14:37:33.665Z,1.40
2018-09-24T14:40:07.740Z,1.50
2018-09-24T14:42:41.208Z,1.23
2018-09-24T14:45:14.948Z,0.90
2018-09-24T14:47:48.650Z,1.40
2018-09-24T14:50:22.069Z,1.30
2018-09-24T14:52:55.502Z,1.20
2018-09-24T14:55:29.135Z,1.30
2018-09-24T14:58:02.595Z,0.80
2018-09-24T15:00:36.009Z,1.20
2018-09-24T15:03:09.575Z,1.20
2018-09-24T15:05:43.008Z,1.30
2018-09-24T15:08:16.537Z,1.40
2018-09-24T15:10:50.143Z,1.07
2018-09-24T15:13:23.544Z,1.40
2018-09-24T15:15:56.994Z,1.60
2018-09-24T15:18:30.569Z,1.60
2018-09-24T15:21:04.757Z,1.20
2018-09-24T15:23:38.212Z,0.93
2018-09-24T15:26:11.878Z,1.10
2018-09-24T15:28:45.334Z,1.50
2018-09-24T15:31:18.844Z,1.47
2018-09-24T15:33:52.316Z,1.00
2018-09-24T15:36:25.871Z,1.20
2018-09-24T15:38:59.512Z,1.20
2018-09-24T15:41:32.904Z,1.30
2018-09-24T15:44:06.518Z,1.30
2018-09-24T15:46:40.141Z,1.00
2018-09-24T15:49:13.904Z,1.40
2018-09-24T15:51:47.602Z,1.20
2018-09-24T15:54:21.241Z,1.10
2018-09-24T15:56:54.624Z,0.80
2018-09-24T15:59:28.188Z,1.10
2018-09-24T16:02:01.786Z,0.90
2018-09-24T16:04:35.264Z,0.93
2018-09-24T16:07:08.941Z,0.90
2018-09-24T16:09:42.355Z,1.80
2018-09-24T16:12:15.981Z,1.03
2018-09-24T16:14:49.412Z,1.00
2018-09-24T16:17:22.865Z,0.83
2018-09-24T16:19:56.414Z,1.23
2018-09-24T16:22:29.892Z,1.07
2018-09-24T16:25:03.345Z,1.00
2018-09-24T16:27:36.892Z,1.30
2018-09-24T16:30:10.616Z,1.83
2018-09-24T16:32:43.986Z,1.10
2018-09-24T16:35:17.525Z,1.00
2018-09-24T16:37:50.844Z,1.07
2018-09-24T16:40:24.341Z,1.00
2018-09-24T16:42:58.063Z,2.40
2018-09-24T16:45:31.438Z,1.50
2018-09-24T16:48:04.868Z,0.97
2018-09-24T16:50:38.255Z,1.50
2018-09-24T16:53:11.833Z,1.70
2018-09-24T16:55:45.333Z,1.70
2018-09-24T16:58:18.860Z,1.30
2018-09-24T17:00:52.562Z,1.73
2018-09-24T17:03:26.101Z,1.17
2018-09-24T17:05:59.677Z,0.97
2018-09-24T17:08:33.457Z,1.20
2018-09-24T17:11:06.856Z,1.00
2018-09-24T17:13:40.622Z,1.10
2018-09-24T17:16:13.985Z,1.10
2018-09-24T17:18:47.551Z,1.23
2018-09-24T17:21:21.081Z,1.33
2018-09-24T17:23:54.626Z,1.33
2018-09-24T17:26:28.097Z,1.40
2018-09-24T17:29:01.486Z,1.53
2018-09-24T17:31:34.878Z,1.33
2018-09-24T17:34:08.529Z,0.97
2018-09-24T17:36:41.945Z,1.23
2018-09-24T17:39:15.770Z,1.07
2018-09-24T17:41:49.491Z,1.80
2018-09-24T17:44:23.142Z,1.30
2018-09-24T17:46:56.753Z,1.50
2018-09-24T17:49:30.261Z,1.43
2018-09-24T17:52:03.849Z,1.50
2018-09-24T17:54:37.490Z,1.33
2018-09-24T17:57:11.144Z,1.40
2018-09-24T17:59:44.657Z,4.27
2018-09-24T18:02:18.328Z,1.13
2018-09-24T18:04:51.963Z,1.43
2018-09-24T18:07:25.405Z,1.57
2018-09-24T18:09:58.997Z,1.40
2018-09-24T18:12:32.724Z,1.53
2018-09-24T18:15:06.411Z,1.70
2018-09-24T18:17:39.877Z,1.60
2018-09-24T18:20:13.665Z,1.10
2018-09-24T18:22:47.139Z,1.40
2018-09-24T18:25:20.801Z,1.70
2018-09-24T18:27:54.229Z,1.57
2018-09-24T18:30:27.730Z,1.37
2018-09-24T18:33:01.272Z,1.60
2018-09-24T18:35:34.973Z,2.50
2018-09-24T18:38:08.514Z,2.00
2018-09-24T18:40:42.372Z,1.80
2018-09-24T18:43:16.008Z,1.90
2018-09-24T18:45:49.489Z,1.97
2018-09-24T18:48:23.129Z,1.70
2018-09-24T18:50:57.094Z,1.97
2018-09-24T18:53:30.549Z,1.60
2018-09-24T18:56:04.129Z,2.17
2018-09-24T18:58:37.848Z,2.27
2018-09-24T19:01:12.050Z,2.80
2018-09-24T19:03:45.556Z,2.33
2018-09-24T19:06:19.107Z,2.27
2018-09-24T19:08:52.956Z,2.10
2018-09-24T19:11:27.967Z,2.10
2018-09-24T19:14:01.085Z,5.07
2018-09-24T19:16:34.736Z,2.23
2018-09-24T19:19:08.438Z,1.83
2018-09-24T19:21:42.147Z,2.80
2018-09-24T19:24:15.797Z,2.50
2018-09-24T19:26:49.230Z,2.20
2018-09-24T19:29:22.875Z,1.87
2018-09-24T19:31:56.366Z,2.10
2018-09-24T19:34:29.813Z,2.20
2018-09-24T19:37:03.510Z,2.30
2018-09-24T19:39:37.329Z,1.93
2018-09-24T19:42:11.451Z,2.17
2018-09-24T19:44:44.894Z,2.60
2018-09-24T19:47:18.392Z,2.53
2018-09-24T19:49:51.792Z,2.53
2018-09-24T19:52:25.220Z,2.27
2018-09-24T19:54:59.012Z,2.17
2018-09-24T19:57:32.732Z,2.20
2018-09-24T20:00:06.429Z,3.00
2018-09-24T20:02:40.178Z,2.20
2018-09-24T20:05:13.839Z,2.33
2018-09-24T20:07:47.495Z,2.90
2018-09-24T20:10:21.180Z,3.30
2018-09-24T20:12:54.793Z,3.83
2018-09-24T20:15:28.608Z,3.27
2018-09-24T20:18:02.265Z,3.40
2018-09-24T20:20:35.840Z,2.70
2018-09-24T20:23:09.463Z,2.50
2018-09-24T20:25:43.112Z,2.20
2018-09-24T20:28:16.734Z,2.90
2018-09-24T20:30:50.150Z,2.37
2018-09-24T20:33:23.647Z,2.53
2018-09-24T20:35:57.285Z,2.53
2018-09-24T20:38:30.828Z,4.13
2018-09-24T20:41:04.597Z,2.60
2018-09-24T20:43:38.173Z,2.70
2018-09-24T20:46:11.997Z,2.40
2018-09-24T20:48:45.685Z,2.10
2018-09-24T20:51:19.421Z,2.57
2018-09-24T20:53:52.800Z,2.50
2018-09-24T20:56:26.464Z,2.43
2018-09-24T20:58:59.924Z,2.43
2018-09-24T21:01:33.601Z,2.10
2018-09-24T21:04:07.236Z,2.50
2018-09-24T21:06:40.815Z,2.50
2018-09-24T21:09:14.187Z,2.63
2018-09-24T21:11:47.673Z,2.73
2018-09-24T21:14:21.380Z,3.13
2018-09-24T21:16:54.770Z,2.77
2018-09-24T21:19:28.441Z,3.00
2018-09-24T21:22:02.104Z,2.83
2018-09-24T21:24:35.488Z,2.40
2018-09-24T21:27:09.152Z,2.63
2018-09-24T21:29:42.924Z,2.30
2018-09-24T21:32:16.342Z,2.73
2018-09-24T21:34:49.805Z,2.57
2018-09-24T21:37:23.162Z,2.33
2018-09-24T21:39:56.775Z,2.30
2018-09-24T21:42:30.348Z,2.07
2018-09-24T21:45:04.141Z,2.57
2018-09-24T21:47:37.541Z,2.10
2018-09-24T21:50:11.413Z,3.10
2018-09-24T21:52:44.877Z,2.50
2018-09-24T21:55:18.245Z,2.33
2018-09-24T21:57:51.815Z,2.33
2018-09-24T22:03:04.451Z,2.73
2018-09-24T22:05:37.942Z,2.40
2018-09-24T22:08:11.580Z,2.60
2018-09-24T22:10:45.134Z,2.67
2018-09-24T22:13:18.551Z,2.20
2018-09-24T22:15:52.002Z,2.40
2018-09-24T22:18:25.561Z,2.83
2018-09-24T22:20:59.297Z,2.50
2018-09-24T22:23:32.847Z,2.30
2018-09-24T22:26:06.360Z,2.40
2018-09-24T22:28:40.116Z,2.60
2018-09-24T22:31:13.473Z,2.03
2018-09-24T22:33:46.949Z,2.20
2018-09-24T22:36:20.568Z,2.20
2018-09-24T22:38:54.080Z,2.13
2018-09-24T22:41:27.530Z,2.23
2018-09-24T22:44:00.974Z,2.53
2018-09-24T22:46:34.527Z,2.17
2018-09-24T22:49:08.309Z,2.20
2018-09-24T22:51:41.913Z,2.20
2018-09-24T22:54:15.327Z,1.90
2018-09-24T22:56:48.784Z,2.60
2018-09-24T22:59:22.248Z,1.70
2018-09-24T23:01:55.810Z,1.87
2018-09-24T23:04:29.202Z,1.90
2018-09-24T23:07:02.966Z,1.83
2018-09-24T23:09:36.360Z,2.07
2018-09-24T23:12:10.397Z,2.10
2018-09-24T23:14:43.805Z,1.97
2018-09-24T23:17:17.204Z,2.07
2018-09-24T23:19:50.803Z,1.90
2018-09-24T23:22:24.294Z,2.20
2018-09-24T23:24:57.771Z,1.90
2018-09-24T23:27:31.452Z,1.90
2018-09-24T23:30:05.224Z,2.53
2018-09-24T23:32:39.045Z,1.90
2018-09-24T23:35:12.640Z,2.10
2018-09-24T23:37:46.349Z,2.13
2018-09-24T23:40:19.776Z,1.77
2018-09-24T23:42:53.141Z,1.90
2018-09-24T23:45:26.687Z,1.87
2018-09-24T23:48:00.207Z,2.47
2018-09-24T23:50:33.649Z,2.30
2018-09-24T23:53:07.132Z,1.53
2018-09-24T23:55:40.801Z,2.17
2018-09-24T23:58:14.211Z,2.13
